Date,TemperatureHighF,TemperatureAvgF,TemperatureLowF,DewpointHighF,DewpointAvgF,DewpointLowF,HumidityHigh,HumidityAvg,HumidityLow,PressureMaxIn,PressureMinIn,WindSpeedMaxMPH,WindSpeedAvgMPH,GustSpeedMaxMPH,PrecipitationSumIn
2014-1-1,31.0,25.4,17.8,19.0,13.2,7.0,75,61,46,30.47,30.33,4,0,9,0.01
2014-1-2,28.1,22.6,12.8,20.0,17.4,9.0,88,80,63,30.34,29.77,6,1,14,0.00
2014-1-3,15.1,8.3,-1.4,10.0,2.6,-6.0,88,78,61,30.55,29.73,8,2,16,0.00
2014-1-4,25.7,7.9,-5.0,11.0,0.5,-10.0,86,74,42,30.61,30.38,3,0,10,0.01
2014-1-5,34.4,21.0,4.8,34.0,19.5,1.0,100,93,85,30.40,29.86,0,0,2,0.00
2014-1-6,53.3,39.6,22.9,53.0,35.6,7.0,100,87,49,29.85,29.46,7,1,19,0.99
2014-1-7,21.4,8.8,5.6,5.0,-10.4,-16.0,52,42,31,30.43,29.73,14,2,21,0.00
2014-1-8,20.8,13.2,5.2,7.0,-1.1,-8.0,67,54,40,30.61,30.44,4,0,9,0.00
2014-1-9,32.2,19.5,12.1,17.0,10.2,5.0,86,69,39,30.72,30.56,3,0,8,0.03
2014-1-10,33.7,28.0,15.4,32.0,25.7,12.0,100,91,84,30.68,30.30,0,0,1,0.08
2014-1-11,55.0,44.2,32.4,55.0,44.2,32.0,100,100,100,30.29,29.38,7,1,16,0.45
2014-1-12,49.9,40.4,27.9,50.0,31.7,26.0,100,73,53,30.12,29.43,9,1,19,0.16
2014-1-13,48.2,35.7,24.8,38.0,31.7,24.0,99,86,63,30.21,29.97,6,0,9,0.20
2014-1-14,43.1,39.0,33.8,43.0,39.0,34.0,100,100,95,29.97,29.72,0,0,2,0.29
2014-1-15,46.0,35.7,28.2,43.0,34.4,28.0,100,95,70,30.07,29.89,5,0,7,0.01
2014-1-16,37.8,35.2,28.7,37.0,32.3,27.0,100,89,77,30.01,29.90,2,0,6,0.00
2014-1-17,43.1,31.0,22.4,32.0,27.1,21.0,99,87,58,30.06,29.96,10,0,11,0.00
2014-1-18,35.6,31.9,27.2,35.0,28.9,20.0,100,89,69,29.95,29.70,4,0,9,0.17
2014-1-19,35.0,29.2,24.8,24.0,19.5,15.0,79,67,57,29.90,29.70,5,1,14,0.00
2014-1-20,42.8,35.9,30.1,29.0,24.2,16.0,83,63,50,29.95,29.63,5,0,11,0.00
2014-1-21,29.8,17.7,9.5,14.0,9.4,4.0,87,71,49,30.08,29.91,4,1,15,0.00
2014-1-22,14.1,7.8,1.1,4.0,-5.1,-10.0,77,56,42,30.06,29.85,6,2,14,0.00
2014-1-23,19.9,8.8,-0.6,1.0,-2.6,-6.0,83,62,40,30.34,30.06,3,0,14,0.00
2014-1-24,19.1,12.2,7.0,3.0,-2.0,-6.0,81,54,34,30.43,30.17,5,1,11,0.00
2014-1-25,27.2,22.2,13.8,22.0,11.4,3.0,89,65,48,30.15,29.50,6,1,20,0.00
2014-1-26,22.1,17.8,12.3,16.0,6.4,-3.0,93,63,35,29.95,29.52,6,1,13,0.02
2014-1-27,41.5,26.9,19.1,32.0,14.2,-5.0,94,63,28,30.14,29.68,8,1,18,0.07
2014-1-28,18.6,14.7,10.0,-2.0,-7.0,-11.0,48,38,28,30.42,30.15,6,1,14,0.00
2014-1-29,24.1,16.3,9.0,8.0,-0.1,-10.0,82,52,27,30.35,30.14,5,0,11,0.03
2014-1-30,29.0,14.5,2.2,10.0,3.0,-3.0,82,63,32,30.52,30.28,4,0,8,0.01
2014-1-31,39.9,28.7,13.5,26.0,16.1,9.0,86,62,31,30.30,30.15,2,0,6,0.02